createdAt,value
2022-10-22T00:00:50.523Z,2.75
2022-10-22T00:03:17.784Z,3.05
2022-10-22T00:05:44.428Z,2.80
2022-10-22T00:08:11.069Z,2.83
2022-10-22T00:10:38.714Z,2.80
2022-10-22T00:13:05.843Z,2.85
2022-10-22T00:15:32.649Z,3.43
2022-10-22T00:17:59.254Z,3.25
2022-10-22T00:20:25.892Z,3.08
2022-10-22T00:25:21.364Z,2.92
2022-10-22T00:27:47.882Z,3.53
2022-10-22T00:30:19.631Z,2.97
2022-10-22T00:32:46.285Z,3.00
2022-10-22T00:35:15.492Z,3.20
2022-10-22T00:37:44.430Z,3.38
2022-10-22T00:40:11.751Z,2.85
2022-10-22T00:42:42.053Z,4.05
2022-10-22T00:46:05.389Z,3.00
2022-10-22T00:48:33.686Z,2.47
2022-10-22T00:51:04.779Z,2.95
2022-10-22T00:53:45.941Z,5.32
2022-10-22T00:56:12.767Z,4.97
2022-10-22T00:58:44.477Z,4.88
2022-10-22T01:01:20.399Z,3.85
2022-10-22T01:03:50.825Z,3.03
2022-10-22T01:06:25.185Z,2.60
2022-10-22T01:09:10.798Z,3.45
2022-10-22T01:12:15.595Z,2.70
2022-10-22T01:15:23.125Z,2.78
2022-10-22T01:20:36.863Z,2.55
2022-10-22T01:23:21.345Z,2.92
2022-10-22T01:26:09.879Z,2.40
2022-10-22T01:28:58.530Z,2.60
2022-10-22T01:31:27.659Z,2.60
2022-10-22T01:33:55.698Z,2.72
2022-10-22T01:41:47.746Z,3.00
2022-10-22T01:44:31.194Z,2.58
2022-10-22T01:47:05.662Z,3.13
2022-10-22T01:50:02.853Z,2.70
2022-10-22T01:52:50.500Z,2.92
2022-10-22T01:58:20.017Z,2.90
2022-10-22T02:00:56.505Z,3.00
2022-10-22T02:03:34.331Z,2.90
2022-10-22T02:06:06.458Z,3.30
2022-10-22T02:08:35.404Z,3.10
2022-10-22T02:11:03.425Z,3.13
2022-10-22T02:13:55.567Z,2.92
2022-10-22T02:16:28.805Z,4.30
2022-10-22T02:18:59.613Z,5.32
2022-10-22T02:21:27.101Z,5.30
2022-10-22T02:23:54.260Z,5.88
2022-10-22T02:26:41.449Z,5.53
2022-10-22T02:29:21.958Z,4.60
2022-10-22T02:31:51.837Z,4.40
2022-10-22T02:34:24.179Z,4.63
2022-10-22T02:36:52.039Z,3.58
2022-10-22T02:39:21.043Z,3.72
2022-10-22T02:41:48.568Z,3.80
2022-10-22T02:44:15.639Z,3.60
2022-10-22T02:46:43.497Z,3.45
2022-10-22T02:49:10.055Z,3.10
2022-10-22T02:51:37.038Z,3.25
2022-10-22T02:54:04.898Z,2.97
2022-10-22T02:56:31.921Z,3.10
2022-10-22T02:58:58.743Z,3.00
2022-10-22T03:01:25.407Z,2.78
2022-10-22T03:03:52.302Z,3.33
2022-10-22T03:06:19.879Z,3.40
2022-10-22T03:08:54.759Z,2.97
2022-10-22T03:11:21.702Z,2.88
2022-10-22T03:13:48.634Z,3.08
2022-10-22T03:16:15.153Z,3.13
2022-10-22T03:18:43.835Z,3.03
2022-10-22T03:21:25.820Z,3.22
2022-10-22T03:23:52.687Z,3.08
2022-10-22T03:26:20.253Z,3.00
2022-10-22T03:28:58.780Z,2.67
2022-10-22T03:31:27.893Z,2.83
2022-10-22T03:33:55.570Z,3.03
2022-10-22T03:36:27.896Z,3.30
2022-10-22T03:38:57.727Z,3.08
2022-10-22T03:41:24.389Z,2.75
2022-10-22T03:43:53.035Z,2.97
2022-10-22T03:46:31.818Z,3.00
2022-10-22T03:48:58.348Z,2.90
2022-10-22T03:51:27.903Z,2.88
2022-10-22T03:53:54.692Z,3.28
2022-10-22T03:56:26.651Z,2.80
2022-10-22T03:58:57.414Z,3.70
2022-10-22T04:01:24.742Z,3.33
2022-10-22T04:03:51.292Z,2.88
2022-10-22T04:06:20.382Z,2.97
2022-10-22T04:08:47.120Z,3.53
2022-10-22T04:11:15.326Z,3.25
2022-10-22T04:13:42.588Z,3.40
2022-10-22T04:16:10.367Z,3.20
2022-10-22T04:18:37.810Z,3.30
2022-10-22T04:21:05.941Z,2.90
2022-10-22T04:23:35.392Z,3.10
2022-10-22T04:26:07.688Z,3.10
2022-10-22T04:28:36.395Z,3.28
2022-10-22T04:31:14.559Z,3.08
2022-10-22T04:33:41.959Z,2.90
2022-10-22T04:36:20.746Z,3.22
2022-10-22T04:38:52.173Z,3.30
2022-10-22T04:41:24.090Z,2.95
2022-10-22T04:43:51.325Z,3.17
2022-10-22T04:46:21.081Z,3.60
2022-10-22T04:48:48.732Z,3.70
2022-10-22T04:51:21.029Z,3.00
2022-10-22T04:53:50.929Z,3.03
2022-10-22T04:56:23.595Z,3.42
2022-10-22T04:59:08.554Z,2.80
2022-10-22T05:01:42.913Z,2.83
2022-10-22T05:04:17.472Z,3.22
2022-10-22T05:06:47.911Z,2.90
2022-10-22T05:09:18.755Z,3.60
2022-10-22T05:11:51.409Z,3.38
2022-10-22T05:14:22.956Z,2.97
2022-10-22T05:16:52.581Z,3.00
2022-10-22T05:19:27.177Z,2.92
2022-10-22T05:21:57.006Z,3.25
2022-10-22T05:24:24.499Z,3.25
2022-10-22T05:27:00.326Z,3.08
2022-10-22T05:29:31.173Z,2.97
2022-10-22T05:32:00.760Z,3.63
2022-10-22T05:34:29.226Z,2.88
2022-10-22T05:36:56.564Z,2.85
2022-10-22T05:39:27.426Z,3.10
2022-10-22T05:41:57.022Z,3.10
2022-10-22T05:44:24.092Z,3.17
2022-10-22T05:46:51.805Z,3.10
2022-10-22T05:49:21.547Z,4.15
2022-10-22T05:51:53.523Z,2.92
2022-10-22T05:54:22.219Z,3.00
2022-10-22T05:56:52.059Z,3.70
2022-10-22T05:59:18.637Z,2.90
2022-10-22T06:01:45.740Z,2.95
2022-10-22T06:04:16.123Z,2.95
2022-10-22T06:06:49.872Z,3.35
2022-10-22T06:09:27.459Z,3.28
2022-10-22T06:11:59.877Z,2.85
2022-10-22T06:14:27.347Z,3.13
2022-10-22T06:16:55.120Z,3.25
2022-10-22T06:19:23.448Z,3.30
2022-10-22T06:21:51.485Z,2.85
2022-10-22T06:26:52.631Z,2.90
2022-10-22T06:29:20.634Z,2.80
2022-10-22T06:31:57.178Z,2.90
2022-10-22T06:34:25.946Z,2.90
2022-10-22T06:39:44.118Z,2.78
2022-10-22T06:42:41.776Z,3.10
2022-10-22T06:45:11.874Z,2.85
2022-10-22T06:47:38.925Z,2.95
2022-10-22T06:50:06.282Z,2.50
2022-10-22T06:52:33.804Z,3.23
2022-10-22T06:55:01.220Z,3.05
2022-10-22T06:57:29.894Z,3.10
2022-10-22T06:59:56.320Z,2.78
2022-10-22T07:02:23.037Z,2.63
2022-10-22T07:04:51.271Z,2.90
2022-10-22T07:07:17.872Z,2.80
2022-10-22T07:09:47.693Z,2.65
2022-10-22T07:12:15.260Z,3.22
2022-10-22T07:14:42.091Z,2.72
2022-10-22T07:17:08.889Z,2.80
2022-10-22T07:19:35.809Z,3.13
2022-10-22T07:22:04.031Z,3.05
2022-10-22T07:24:31.088Z,2.95
2022-10-22T07:26:57.768Z,3.20
2022-10-22T07:29:25.340Z,3.63
2022-10-22T07:31:53.156Z,2.67
2022-10-22T07:36:47.954Z,2.88
2022-10-22T07:39:14.785Z,2.97
2022-10-22T07:41:41.684Z,2.75
2022-10-22T07:44:08.325Z,2.72
2022-10-22T07:46:35.432Z,2.78
2022-10-22T07:49:02.381Z,2.80
2022-10-22T07:51:29.379Z,2.92
2022-10-22T07:53:56.497Z,2.40
2022-10-22T07:56:24.613Z,2.00
2022-10-22T07:58:58.929Z,1.90
2022-10-22T08:01:25.817Z,2.20
2022-10-22T08:03:55.562Z,2.78
2022-10-22T08:06:23.043Z,2.60
2022-10-22T08:08:52.942Z,2.15
2022-10-22T08:11:21.599Z,2.58
2022-10-22T08:13:49.319Z,1.95
2022-10-22T08:16:16.055Z,2.22
2022-10-22T08:18:52.546Z,2.20
2022-10-22T08:21:20.152Z,2.10
2022-10-22T08:23:50.734Z,2.05
2022-10-22T08:26:18.721Z,1.65
2022-10-22T08:28:47.940Z,2.33
2022-10-22T08:31:17.560Z,1.88
2022-10-22T08:33:45.798Z,2.28
2022-10-22T08:36:13.376Z,2.47
2022-10-22T08:38:41.759Z,2.20
2022-10-22T08:41:22.256Z,1.85
2022-10-22T08:44:09.362Z,1.83
2022-10-22T08:46:44.871Z,2.05
2022-10-22T08:49:25.429Z,2.03
2022-10-22T08:51:52.687Z,2.15
2022-10-22T08:54:47.147Z,2.15
2022-10-22T08:57:21.488Z,1.67
2022-10-22T09:00:13.738Z,2.00
2022-10-22T09:03:01.621Z,2.22
2022-10-22T09:08:23.253Z,1.90
2022-10-22T09:11:12.613Z,2.13
2022-10-22T09:13:54.664Z,2.35
2022-10-22T09:16:48.240Z,1.95
2022-10-22T09:19:36.767Z,2.15
2022-10-22T09:22:47.139Z,2.50
2022-10-22T09:25:37.596Z,1.80
2022-10-22T09:28:06.427Z,2.10
2022-10-22T09:30:40.467Z,2.03
2022-10-22T09:33:14.162Z,2.13
2022-10-22T09:36:03.543Z,2.20
2022-10-22T09:38:44.986Z,1.85
2022-10-22T09:41:12.150Z,1.83
2022-10-22T09:43:39.705Z,1.92
2022-10-22T09:46:08.704Z,1.92
2022-10-22T09:49:00.233Z,2.22
2022-10-22T09:51:41.839Z,1.90
2022-10-22T09:54:18.143Z,2.75
2022-10-22T09:56:55.902Z,2.10
2022-10-22T09:59:34.206Z,2.05
2022-10-22T10:02:19.949Z,2.10
2022-10-22T10:05:02.469Z,1.88
2022-10-22T10:08:13.290Z,2.00
2022-10-22T10:10:58.795Z,2.20
2022-10-22T10:13:53.645Z,2.03
2022-10-22T10:16:54.180Z,2.03
2022-10-22T10:19:41.225Z,2.20
2022-10-22T10:22:13.720Z,1.95
2022-10-22T10:24:59.228Z,1.88
2022-10-22T10:27:34.928Z,1.80
2022-10-22T10:30:37.935Z,1.95
2022-10-22T10:33:28.323Z,2.30
2022-10-22T10:36:21.388Z,2.08
2022-10-22T10:38:56.002Z,2.10
2022-10-22T10:41:40.525Z,1.83
2022-10-22T10:44:09.759Z,2.28
2022-10-22T10:46:39.467Z,1.73
2022-10-22T10:49:09.943Z,1.30
2022-10-22T10:51:51.625Z,1.85
2022-10-22T10:54:35.492Z,1.63
2022-10-22T10:57:22.876Z,2.40
2022-10-22T11:00:17.254Z,2.10
2022-10-22T11:02:51.448Z,1.50
2022-10-22T11:05:39.228Z,2.00
2022-10-22T11:08:21.757Z,2.00
2022-10-22T11:13:54.065Z,1.95
2022-10-22T11:16:31.135Z,1.98
2022-10-22T11:19:59.125Z,2.15
2022-10-22T11:23:17.730Z,3.70
2022-10-22T11:25:49.991Z,2.35
2022-10-22T11:28:33.802Z,1.90
2022-10-22T11:31:05.548Z,3.03
2022-10-22T11:34:28.640Z,2.33
2022-10-22T11:36:54.454Z,1.63
2022-10-22T11:40:02.427Z,2.15
2022-10-22T11:42:35.278Z,1.75
2022-10-22T11:45:06.666Z,1.52
2022-10-22T11:47:42.402Z,2.25
2022-10-22T11:50:25.942Z,2.05
2022-10-22T11:53:08.496Z,2.22
2022-10-22T11:55:52.316Z,1.92
2022-10-22T11:58:35.227Z,1.40
2022-10-22T12:01:04.309Z,1.73
2022-10-22T12:03:35.502Z,1.73
2022-10-22T12:06:27.813Z,5.22
2022-10-22T12:08:54.551Z,2.33
2022-10-22T12:11:22.708Z,2.20
2022-10-22T12:13:58.702Z,1.95
2022-10-22T12:16:37.709Z,2.10
2022-10-22T12:19:17.817Z,2.67
2022-10-22T12:21:50.802Z,2.33
2022-10-22T12:24:20.787Z,1.60
2022-10-22T12:26:50.127Z,1.67
2022-10-22T12:29:17.552Z,2.33
2022-10-22T12:31:50.500Z,1.70
2022-10-22T12:34:22.482Z,2.85
2022-10-22T12:36:52.888Z,1.83
2022-10-22T12:39:25.670Z,1.95
2022-10-22T12:41:54.031Z,2.03
2022-10-22T12:44:22.272Z,2.45
2022-10-22T12:46:55.973Z,2.28
2022-10-22T12:49:38.681Z,2.35
2022-10-22T12:52:12.041Z,2.03
2022-10-22T12:54:41.262Z,4.50
2022-10-22T12:57:14.169Z,2.67
2022-10-22T12:59:47.318Z,2.47
2022-10-22T13:02:26.348Z,2.30
2022-10-22T13:05:15.031Z,2.67
2022-10-22T13:07:44.109Z,2.40
2022-10-22T13:10:20.603Z,1.85
2022-10-22T13:12:53.366Z,2.63
2022-10-22T13:15:36.279Z,2.17
2022-10-22T13:18:27.586Z,2.40
2022-10-22T13:21:01.947Z,2.40
2022-10-22T13:23:31.823Z,2.05
2022-10-22T13:26:31.647Z,2.08
2022-10-22T13:29:01.237Z,2.20
2022-10-22T13:34:24.049Z,2.20
2022-10-22T13:36:52.995Z,2.47
2022-10-22T13:39:24.643Z,2.42
2022-10-22T13:41:52.407Z,2.40
2022-10-22T13:44:21.606Z,2.15
2022-10-22T13:46:50.428Z,3.40
2022-10-22T13:52:39.881Z,2.55
2022-10-22T13:55:14.120Z,2.53
2022-10-22T13:57:41.140Z,2.80
2022-10-22T14:00:11.893Z,2.30
2022-10-22T14:02:38.814Z,2.58
2022-10-22T14:05:09.452Z,2.90
2022-10-22T14:07:37.823Z,2.70
2022-10-22T14:10:15.611Z,2.08
2022-10-22T14:12:49.436Z,2.40
2022-10-22T14:15:22.793Z,2.63
2022-10-22T14:17:56.862Z,2.47
2022-10-22T14:20:28.382Z,2.45
2022-10-22T14:22:56.233Z,2.20
2022-10-22T14:25:27.085Z,2.08
2022-10-22T14:27:53.689Z,2.53
2022-10-22T14:30:24.655Z,2.33
2022-10-22T14:32:53.375Z,2.53
2022-10-22T14:35:23.903Z,2.35
2022-10-22T14:37:51.022Z,2.40
2022-10-22T14:40:20.071Z,2.63
2022-10-22T14:42:50.364Z,2.88
2022-10-22T14:45:27.700Z,2.33
2022-10-22T14:47:57.793Z,2.63
2022-10-22T14:50:25.584Z,2.47
2022-10-22T14:52:52.774Z,2.85
2022-10-22T14:55:20.606Z,2.50
2022-10-22T14:57:48.735Z,2.25
2022-10-22T15:00:17.736Z,2.22
2022-10-22T15:02:45.207Z,2.63
2022-10-22T15:05:12.400Z,2.55
2022-10-22T15:07:41.470Z,2.53
2022-10-22T15:10:09.354Z,2.05
2022-10-22T15:12:36.243Z,2.20
2022-10-22T15:15:03.212Z,2.20
2022-10-22T15:17:30.567Z,2.80
2022-10-22T15:19:59.691Z,2.55
2022-10-22T15:22:29.055Z,2.38
2022-10-22T15:24:56.325Z,2.20
2022-10-22T15:27:23.896Z,2.22
2022-10-22T15:29:52.375Z,2.78
2022-10-22T15:32:19.014Z,2.95
2022-10-22T15:34:45.885Z,2.42
2022-10-22T15:37:13.819Z,2.10
2022-10-22T15:39:41.619Z,2.30
2022-10-22T15:44:40.195Z,1.98
2022-10-22T15:47:08.291Z,2.03
2022-10-22T15:49:37.932Z,2.10
2022-10-22T15:52:06.506Z,1.92
2022-10-22T15:54:33.627Z,2.30
2022-10-22T15:57:08.664Z,1.80
2022-10-22T15:59:36.114Z,2.25
2022-10-22T16:02:03.212Z,2.10
2022-10-22T16:04:32.377Z,2.45
2022-10-22T16:06:59.762Z,2.20
2022-10-22T16:09:30.148Z,2.67
2022-10-22T16:11:58.205Z,2.05
2022-10-22T16:14:25.375Z,2.05
2022-10-22T16:16:54.097Z,1.90
2022-10-22T16:19:22.780Z,1.83
2022-10-22T16:21:56.728Z,2.53
2022-10-22T16:24:24.785Z,2.15
2022-10-22T16:26:57.180Z,2.47
2022-10-22T16:29:45.587Z,1.95
2022-10-22T16:32:21.920Z,2.00
2022-10-22T16:34:52.829Z,2.25
2022-10-22T16:37:25.931Z,2.42
2022-10-22T16:39:52.572Z,2.20
2022-10-22T16:42:19.399Z,2.38
2022-10-22T16:44:46.210Z,2.42
2022-10-22T16:47:12.704Z,2.38
2022-10-22T16:49:40.265Z,1.80
2022-10-22T16:52:07.327Z,2.10
2022-10-22T16:54:34.293Z,2.47
2022-10-22T16:57:01.835Z,2.53
2022-10-22T16:59:29.083Z,2.47
2022-10-22T17:01:56.289Z,2.30
2022-10-22T17:04:23.958Z,2.22
2022-10-22T17:06:52.699Z,2.58
2022-10-22T17:15:51.833Z,2.47
2022-10-22T17:18:19.207Z,3.10
2022-10-22T17:20:45.733Z,3.35
2022-10-22T17:23:12.691Z,3.47
2022-10-22T17:25:44.992Z,3.22
2022-10-22T17:28:11.795Z,2.92
2022-10-22T17:30:42.173Z,3.50
2022-10-22T17:33:08.926Z,3.13
2022-10-22T17:35:41.796Z,3.10
2022-10-22T17:38:09.073Z,3.45
2022-10-22T17:40:36.368Z,3.47
2022-10-22T17:43:02.847Z,3.97
2022-10-22T17:45:49.920Z,3.53
2022-10-22T17:48:17.394Z,3.10
2022-10-22T17:50:48.275Z,3.47
2022-10-22T17:53:18.202Z,4.03
2022-10-22T17:55:44.804Z,4.15
2022-10-22T17:58:11.817Z,4.63
2022-10-22T18:00:38.806Z,4.60
2022-10-22T18:03:06.021Z,4.38
2022-10-22T18:05:36.709Z,4.15
2022-10-22T18:08:07.684Z,4.40
2022-10-22T18:10:39.638Z,5.88
2022-10-22T18:13:06.338Z,5.80
2022-10-22T18:15:33.975Z,5.93
2022-10-22T18:18:00.947Z,5.57
2022-10-22T18:20:29.172Z,5.22
2022-10-22T18:22:57.118Z,4.90
2022-10-22T18:25:24.142Z,5.10
2022-10-22T18:27:50.690Z,5.57
2022-10-22T18:30:18.340Z,5.50
2022-10-22T18:32:46.025Z,6.22
2022-10-22T18:35:12.617Z,7.47
2022-10-22T18:37:40.122Z,7.47
2022-10-22T18:40:14.477Z,5.88
2022-10-22T18:42:43.654Z,5.43
2022-10-22T18:45:13.909Z,5.40
2022-10-22T18:47:41.930Z,5.90
2022-10-22T18:52:37.716Z,4.53
2022-10-22T18:55:05.049Z,4.93
2022-10-22T18:57:32.497Z,8.88
2022-10-22T19:00:01.628Z,9.02
2022-10-22T19:02:29.746Z,7.72
2022-10-22T19:07:23.053Z,7.57
2022-10-22T19:09:53.955Z,9.77
2022-10-22T19:12:21.756Z,9.55
2022-10-22T19:14:49.178Z,9.90
2022-10-22T19:17:15.911Z,9.10
2022-10-22T19:19:45.083Z,10.07
2022-10-22T19:22:12.160Z,9.82
2022-10-22T19:24:39.023Z,10.07
2022-10-22T19:27:05.962Z,9.48
2022-10-22T19:29:32.884Z,11.70
2022-10-22T19:31:59.759Z,14.20
2022-10-22T19:34:26.772Z,14.75
2022-10-22T19:36:55.518Z,15.35
2022-10-22T19:39:22.116Z,14.32
2022-10-22T19:41:48.758Z,13.30
2022-10-22T19:44:15.935Z,13.43
2022-10-22T19:46:45.204Z,13.80
2022-10-22T19:49:11.678Z,14.93
2022-10-22T19:51:40.482Z,16.30
2022-10-22T19:54:11.527Z,17.33
2022-10-22T19:56:38.401Z,16.35
2022-10-22T19:59:05.935Z,15.27
2022-10-22T20:01:32.670Z,16.17
2022-10-22T20:04:00.559Z,14.40
2022-10-22T20:06:27.962Z,14.10
2022-10-22T20:08:56.309Z,14.52
2022-10-22T20:11:29.047Z,13.07
2022-10-22T20:13:56.802Z,13.27
2022-10-22T20:16:26.250Z,14.30
2022-10-22T20:18:53.059Z,15.05
2022-10-22T20:21:21.146Z,13.55
2022-10-22T20:23:51.335Z,12.52
2022-10-22T20:26:18.000Z,12.18
2022-10-22T20:28:44.944Z,13.38
2022-10-22T20:31:13.572Z,11.50
2022-10-22T20:33:40.442Z,10.85
2022-10-22T20:36:13.001Z,9.48
2022-10-22T20:38:41.165Z,8.52
2022-10-22T20:41:13.565Z,8.60
2022-10-22T20:43:40.530Z,8.82
2022-10-22T20:46:12.245Z,8.65
2022-10-22T20:48:40.846Z,7.45
2022-10-22T20:51:07.392Z,7.65
2022-10-22T20:53:34.118Z,8.40
2022-10-22T20:56:00.726Z,8.38
2022-10-22T20:58:28.015Z,8.45
2022-10-22T21:00:55.699Z,8.80
2022-10-22T21:03:22.922Z,7.63
2022-10-22T21:05:52.302Z,7.40
2022-10-22T21:08:20.618Z,8.38
2022-10-22T21:10:49.628Z,7.95
2022-10-22T21:13:16.685Z,7.90
2022-10-22T21:15:43.515Z,8.13
2022-10-22T21:18:10.286Z,8.00
2022-10-22T21:20:39.487Z,8.93
2022-10-22T21:23:06.379Z,9.23
2022-10-22T21:25:39.562Z,8.43
2022-10-22T21:28:08.683Z,8.68
2022-10-22T21:30:36.060Z,9.02
2022-10-22T21:33:02.695Z,9.02
2022-10-22T21:35:29.518Z,9.13
2022-10-22T21:37:56.003Z,9.55
2022-10-22T21:40:23.481Z,9.00
2022-10-22T21:42:50.867Z,9.73
2022-10-22T21:45:22.406Z,8.82
2022-10-22T21:47:52.068Z,9.38
2022-10-22T21:50:20.752Z,9.32
2022-10-22T21:52:47.459Z,10.18
2022-10-22T21:55:14.084Z,9.55
2022-10-22T21:57:40.806Z,10.32
2022-10-22T22:00:13.324Z,10.73
2022-10-22T22:02:40.819Z,11.18
2022-10-22T22:05:12.184Z,11.85
2022-10-22T22:07:39.676Z,12.68
2022-10-22T22:10:07.136Z,13.88
2022-10-22T22:12:33.723Z,13.52
2022-10-22T22:15:01.334Z,11.63
2022-10-22T22:17:28.273Z,12.38
2022-10-22T22:19:55.880Z,11.57
2022-10-22T22:22:24.889Z,13.50
2022-10-22T22:24:52.103Z,12.00
2022-10-22T22:29:53.314Z,10.98
2022-10-22T22:32:20.744Z,10.85
2022-10-22T22:34:48.946Z,11.23
2022-10-22T22:37:15.862Z,11.95
2022-10-22T22:39:42.653Z,11.80
2022-10-22T22:42:10.107Z,12.95
2022-10-22T22:44:36.589Z,11.65
2022-10-22T22:47:03.224Z,12.30
2022-10-22T22:49:32.086Z,11.68
2022-10-22T22:51:58.665Z,11.35
2022-10-22T22:54:28.256Z,10.63
2022-10-22T22:56:54.770Z,10.35
2022-10-22T22:59:25.085Z,10.25
2022-10-22T23:01:51.589Z,7.85
2022-10-22T23:04:23.692Z,7.80
2022-10-22T23:06:51.695Z,7.40
2022-10-22T23:11:48.660Z,7.50
2022-10-22T23:14:20.218Z,6.82
2022-10-22T23:16:49.821Z,7.30
2022-10-22T23:19:18.806Z,6.72
2022-10-22T23:21:51.574Z,5.85
2022-10-22T23:24:21.727Z,6.47
2022-10-22T23:26:50.064Z,6.72
2022-10-22T23:29:36.401Z,5.90
2022-10-22T23:32:04.826Z,6.43
2022-10-22T23:34:32.332Z,6.28
2022-10-22T23:36:59.692Z,6.05
2022-10-22T23:39:28.406Z,6.10
2022-10-22T23:41:55.653Z,6.35
2022-10-22T23:44:23.074Z,5.83
2022-10-22T23:46:52.098Z,6.05
2022-10-22T23:49:19.651Z,6.57
2022-10-22T23:51:48.721Z,6.40
2022-10-22T23:54:17.825Z,6.10
2022-10-22T23:56:47.082Z,6.13
2022-10-22T23:59:16.518Z,5.88
